ADDS TAF Data INFO
IDs: Format: Raw Decoded Include METARs

Data at: 0149 UTC 17 Oct 2017

KSRQ 162332Z 1700/1724 36006KT P6SM SCT050 BKN250
  FM170400 04004KT P6SM VCSH SCT040 SCT150 BKN250
  FM171000 05005KT P6SM SCT025 BKN150
  FM171400 05008KT P6SM SCT025 OVC130
  FM171800 05010KT P6SM VCSH SCT025 BKN040 OVC130